Time;durP1;ratioP1;P1;durP2;ratioP2;P2;SDS_P1;SDS_P2;PMS_P1;PMS_P2;Temp;Humidity;BMP_temperature;BMP_pressure;BME280_temperature;BME280_humidity;BME280_pressure;Samples;Min_cycle;Max_cycle;Signal;HPM_P1;HPM_P2
2023/11/23 00:00:16;;;;;;;26.98;15.85;;;1.20;99.90;;;;;;4963668;28;20038;-48
2023/11/23 00:02:43;;;;;;;23.98;14.70;;;1.20;99.90;;;;;;4969180;28;20042;-48
2023/11/23 00:05:11;;;;;;;26.73;15.05;;;1.30;99.90;;;;;;4969732;28;20042;-55
2023/11/23 00:07:38;;;;;;;26.65;15.93;;;1.20;99.90;;;;;;4968990;28;20046;-43
2023/11/23 00:10:06;;;;;;;25.60;15.15;;;1.20;99.90;;;;;;4969669;28;20049;-47
2023/11/23 00:12:33;;;;;;;27.38;15.52;;;1.10;99.90;;;;;;4972147;28;20154;-48
2023/11/23 00:15:00;;;;;;;28.55;15.98;;;1.20;99.90;;;;;;4968900;28;20057;-52
2023/11/23 00:17:29;;;;;;;27.17;15.93;;;1.20;99.90;;;;;;4971503;28;20070;-52
2023/11/23 00:19:58;;;;;;;25.73;14.70;;;1.20;99.90;;;;;;4954198;28;20058;-49
2023/11/23 00:22:26;;;;;;;24.63;15.60;;;1.20;99.90;;;;;;4966606;28;20047;-51
2023/11/23 00:24:56;;;;;;;28.45;15.70;;;1.20;99.90;;;;;;4966765;28;20050;-56
2023/11/23 00:27:24;;;;;;;26.95;15.55;;;1.10;99.90;;;;;;4974574;28;20038;-48
2023/11/23 00:29:51;;;;;;;26.88;15.30;;;1.10;99.90;;;;;;4969589;28;20125;-51
2023/11/23 00:32:19;;;;;;;26.77;15.13;;;1.10;99.90;;;;;;4970039;28;20054;-48
2023/11/23 00:34:46;;;;;;;26.67;15.50;;;1.00;99.90;;;;;;4972135;28;20055;-48
2023/11/23 00:37:14;;;;;;;24.23;14.80;;;1.00;99.90;;;;;;4956879;28;20082;-48
2023/11/23 00:39:42;;;;;;;27.02;15.98;;;1.00;99.90;;;;;;4972508;28;20113;-53
2023/11/23 00:42:09;;;;;;;27.40;15.90;;;1.00;99.90;;;;;;4954584;28;20047;-52
2023/11/23 00:44:37;;;;;;;27.52;15.43;;;1.00;99.90;;;;;;4982708;23;20058;-50
2023/11/23 00:47:04;;;;;;;29.58;16.90;;;1.00;99.90;;;;;;4968116;28;20522;-53
2023/11/23 00:49:33;;;;;;;25.88;15.43;;;1.00;99.90;;;;;;4965192;28;20046;-55
2023/11/23 00:52:01;;;;;;;28.58;15.50;;;1.00;99.90;;;;;;4967928;28;20393;-51
2023/11/23 00:54:28;;;;;;;26.92;16.10;;;0.90;99.90;;;;;;4960848;28;20133;-53
2023/11/23 00:56:55;;;;;;;27.33;15.68;;;1.00;99.90;;;;;;4942509;28;20098;-46
2023/11/23 00:59:22;;;;;;;26.92;15.43;;;1.00;99.90;;;;;;4947887;28;20142;-56
2023/11/23 01:01:49;;;;;;;28.40;16.40;;;1.00;99.90;;;;;;4946389;28;20053;-54
2023/11/23 01:04:16;;;;;;;28.17;17.10;;;0.90;99.90;;;;;;4951105;28;20047;-47
2023/11/23 01:06:44;;;;;;;26.33;15.20;;;0.90;99.90;;;;;;4952529;28;20078;-52
2023/11/23 01:09:11;;;;;;;25.70;15.10;;;1.00;99.90;;;;;;4965437;28;20039;-50
2023/11/23 01:11:39;;;;;;;26.27;15.48;;;1.00;99.90;;;;;;4952422;28;20039;-53
2023/11/23 01:14:08;;;;;;;26.67;14.70;;;1.00;99.90;;;;;;4951547;28;20398;-49
2023/11/23 01:16:35;;;;;;;25.30;14.13;;;1.10;99.90;;;;;;4951938;28;20535;-47
2023/11/23 01:19:02;;;;;;;24.30;14.40;;;1.00;99.90;;;;;;4952363;28;20135;-56
2023/11/23 01:21:29;;;;;;;24.35;14.10;;;1.00;99.90;;;;;;4952025;28;20040;-51
2023/11/23 01:23:56;;;;;;;22.15;13.80;;;1.00;99.90;;;;;;4952120;28;20055;-48
2023/11/23 01:26:23;;;;;;;24.05;13.38;;;0.90;99.90;;;;;;4947647;28;20070;-52
2023/11/23 01:28:50;;;;;;;22.77;13.75;;;1.00;99.90;;;;;;4948777;28;20452;-53
2023/11/23 01:31:17;;;;;;;23.58;14.32;;;1.00;99.90;;;;;;4950734;28;20514;-51
2023/11/23 01:33:44;;;;;;;22.95;13.70;;;1.00;99.90;;;;;;4950758;28;20051;-53
2023/11/23 01:36:12;;;;;;;22.95;13.32;;;1.00;99.90;;;;;;4952185;28;20065;-49
2023/11/23 01:38:39;;;;;;;21.50;13.98;;;1.00;99.90;;;;;;4951382;28;20074;-53
2023/11/23 01:41:06;;;;;;;23.55;13.00;;;0.90;99.90;;;;;;4951782;28;20073;-49
2023/11/23 01:43:33;;;;;;;23.02;14.20;;;1.00;99.90;;;;;;4949802;28;20131;-54
2023/11/23 01:46:01;;;;;;;26.60;14.27;;;0.90;99.90;;;;;;4949552;28;20556;-48
2023/11/23 01:48:30;;;;;;;21.52;13.18;;;0.90;99.90;;;;;;4949158;28;20047;-53
2023/11/23 01:50:59;;;;;;;23.35;14.57;;;0.90;99.90;;;;;;4950988;28;20123;-50
2023/11/23 01:53:26;;;;;;;22.58;13.18;;;0.90;99.90;;;;;;4950724;28;20130;-51
2023/11/23 01:55:53;;;;;;;24.25;14.05;;;0.80;99.90;;;;;;4951792;28;20126;-48
2023/11/23 01:58:21;;;;;;;20.17;13.13;;;0.80;99.90;;;;;;4948224;28;20046;-48
2023/11/23 02:00:50;;;;;;;24.13;13.93;;;0.70;99.90;;;;;;4950407;28;20059;-52
2023/11/23 02:03:21;;;;;;;19.67;12.27;;;0.70;99.90;;;;;;4951272;28;20046;-54
2023/11/23 02:05:49;;;;;;;23.60;13.20;;;0.70;99.90;;;;;;4950150;28;20492;-48
2023/11/23 02:08:16;;;;;;;23.08;14.18;;;0.70;99.90;;;;;;4948760;28;20050;-52
2023/11/23 02:10:43;;;;;;;24.77;13.70;;;0.70;99.90;;;;;;4950335;28;20051;-50
2023/11/23 02:13:10;;;;;;;22.58;13.85;;;0.70;99.90;;;;;;4950011;28;20472;-53
2023/11/23 02:15:37;;;;;;;20.80;12.50;;;0.60;99.90;;;;;;4948861;28;20554;-51
2023/11/23 02:18:10;;;;;;;24.42;14.55;;;0.60;99.90;;;;;;4950721;28;20130;-46
2023/11/23 02:20:39;;;;;;;23.90;13.57;;;0.60;99.90;;;;;;4950607;28;20319;-52
2023/11/23 02:23:06;;;;;;;21.25;13.10;;;0.60;99.90;;;;;;4948822;28;20131;-52
2023/11/23 02:25:33;;;;;;;22.42;12.93;;;0.60;99.90;;;;;;4950561;28;20051;-52
2023/11/23 02:28:00;;;;;;;21.88;13.18;;;0.60;99.90;;;;;;4948084;28;20047;-54
2023/11/23 02:30:28;;;;;;;22.40;13.13;;;0.70;99.90;;;;;;4947832;28;20440;-46
2023/11/23 02:32:55;;;;;;;22.58;12.60;;;0.70;99.90;;;;;;4946579;28;20435;-54
2023/11/23 02:35:23;;;;;;;24.45;13.52;;;0.80;99.90;;;;;;4949558;28;20451;-50
2023/11/23 02:37:50;;;;;;;22.90;13.02;;;0.80;99.90;;;;;;4948857;28;20051;-50
2023/11/23 02:40:17;;;;;;;22.60;13.73;;;0.80;99.90;;;;;;4948542;28;20051;-56
2023/11/23 02:42:45;;;;;;;23.50;13.73;;;0.90;99.90;;;;;;4949475;28;20520;-50
2023/11/23 02:45:13;;;;;;;22.77;14.55;;;0.90;99.90;;;;;;4951769;28;20055;-54
2023/11/23 02:47:40;;;;;;;22.00;13.70;;;0.80;99.90;;;;;;4951290;28;20082;-51
2023/11/23 02:50:09;;;;;;;22.23;13.75;;;0.90;99.90;;;;;;4966106;28;20558;-52
2023/11/23 02:52:36;;;;;;;20.27;13.20;;;0.90;99.90;;;;;;4967376;28;20597;-53
2023/11/23 02:55:04;;;;;;;22.00;13.70;;;0.90;99.90;;;;;;4967654;28;20039;-51
2023/11/23 02:57:31;;;;;;;25.88;14.35;;;1.00;99.90;;;;;;4950015;28;20038;-56
2023/11/23 02:59:58;;;;;;;20.67;12.65;;;1.10;99.90;;;;;;4934810;28;20057;-50
2023/11/23 03:02:25;;;;;;;21.80;13.45;;;1.10;99.90;;;;;;4966925;28;20062;-55
2023/11/23 03:04:53;;;;;;;23.23;13.70;;;1.10;99.90;;;;;;4967751;28;20393;-48
2023/11/23 03:07:21;;;;;;;22.65;13.85;;;1.10;99.90;;;;;;4967927;28;20066;-49
2023/11/23 03:09:48;;;;;;;20.17;12.52;;;1.20;99.90;;;;;;4961954;28;20088;-53
2023/11/23 03:12:16;;;;;;;23.52;13.77;;;1.20;99.90;;;;;;4968021;28;20089;-51
2023/11/23 03:14:43;;;;;;;23.70;13.73;;;1.20;99.90;;;;;;4965720;28;20053;-54
2023/11/23 03:17:10;;;;;;;24.20;14.52;;;1.10;99.90;;;;;;4965581;28;20047;-53
2023/11/23 03:19:38;;;;;;;27.45;14.85;;;1.20;99.90;;;;;;4966257;28;20051;-49
2023/11/23 03:22:06;;;;;;;23.77;13.95;;;1.20;99.90;;;;;;4966966;28;20054;-52
2023/11/23 03:24:33;;;;;;;22.27;13.38;;;1.10;99.90;;;;;;4949192;28;20050;-52
2023/11/23 03:27:00;;;;;;;24.58;14.52;;;1.20;99.90;;;;;;4966627;28;20512;-52
2023/11/23 03:29:27;;;;;;;22.88;13.18;;;1.20;99.90;;;;;;4965727;28;20053;-52
2023/11/23 03:31:55;;;;;;;23.45;14.63;;;1.20;99.90;;;;;;4950209;28;20186;-55
2023/11/23 03:34:23;;;;;;;23.90;14.20;;;1.30;99.90;;;;;;4967887;28;20050;-47
2023/11/23 03:36:50;;;;;;;23.70;14.18;;;1.30;99.90;;;;;;4968594;28;20424;-52
2023/11/23 03:39:18;;;;;;;23.25;14.02;;;1.30;99.90;;;;;;4967754;28;20077;-50
2023/11/23 03:41:47;;;;;;;26.08;14.55;;;1.30;99.90;;;;;;4969895;28;20051;-55
2023/11/23 03:44:14;;;;;;;21.65;13.52;;;1.30;99.90;;;;;;4967274;28;20590;-50
2023/11/23 03:46:41;;;;;;;23.05;14.13;;;1.30;99.90;;;;;;4966842;28;20039;-49
2023/11/23 03:49:09;;;;;;;24.73;13.80;;;1.30;99.90;;;;;;4965981;28;20046;-55
2023/11/23 03:51:36;;;;;;;24.50;14.52;;;1.30;99.90;;;;;;4966005;28;20054;-47
2023/11/23 03:54:03;;;;;;;22.80;14.50;;;1.30;99.90;;;;;;4967670;28;20365;-48
2023/11/23 03:56:31;;;;;;;23.17;14.07;;;1.30;99.90;;;;;;4967389;28;20074;-51
2023/11/23 03:58:58;;;;;;;24.08;14.13;;;1.30;99.90;;;;;;4968016;28;20133;-51
2023/11/23 04:01:25;;;;;;;26.20;14.75;;;1.20;99.90;;;;;;4965974;28;20503;-57
2023/11/23 04:03:52;;;;;;;25.23;14.70;;;1.30;99.90;;;;;;4967910;28;20039;-52
2023/11/23 04:06:19;;;;;;;23.73;13.90;;;1.30;99.90;;;;;;4966180;28;20238;-48
2023/11/23 04:08:47;;;;;;;26.63;14.77;;;1.40;99.90;;;;;;4967970;28;20038;-49
2023/11/23 04:11:15;;;;;;;22.77;14.60;;;1.40;99.90;;;;;;4967348;28;20043;-48
2023/11/23 04:13:42;;;;;;;28.75;15.60;;;1.40;99.90;;;;;;4968697;28;20105;-49
2023/11/23 04:16:09;;;;;;;26.38;15.05;;;1.40;99.90;;;;;;4966358;28;20130;-50
2023/11/23 04:18:36;;;;;;;24.83;14.60;;;1.40;99.90;;;;;;4967531;28;20087;-53
2023/11/23 04:21:03;;;;;;;25.35;15.48;;;1.40;99.90;;;;;;4965358;28;20547;-53
2023/11/23 04:23:31;;;;;;;23.33;14.60;;;1.40;99.90;;;;;;4969067;28;20053;-53
2023/11/23 04:25:57;;;;;;;24.23;14.60;;;1.40;99.90;;;;;;4966576;28;20492;-51
2023/11/23 04:28:25;;;;;;;24.75;14.57;;;1.40;99.90;;;;;;4966801;28;20500;-51
2023/11/23 04:30:53;;;;;;;23.95;15.00;;;1.40;99.90;;;;;;4963767;28;20575;-46
2023/11/23 04:33:22;;;;;;;23.55;13.75;;;1.30;99.90;;;;;;4964131;28;20051;-49
2023/11/23 04:35:50;;;;;;;23.27;14.48;;;1.30;99.90;;;;;;4962681;28;20656;-45
2023/11/23 04:38:17;;;;;;;23.25;14.05;;;1.20;99.90;;;;;;4966204;28;20042;-55
2023/11/23 04:40:44;;;;;;;24.75;15.35;;;1.10;99.90;;;;;;4967742;28;20213;-52
2023/11/23 04:43:12;;;;;;;24.17;15.40;;;1.10;99.90;;;;;;4967685;28;20038;-52
2023/11/23 04:45:39;;;;;;;24.02;14.88;;;1.00;99.90;;;;;;4966095;28;20050;-51
2023/11/23 04:48:06;;;;;;;27.70;15.95;;;0.90;99.90;;;;;;4966337;28;20729;-54
2023/11/23 04:50:34;;;;;;;27.35;16.25;;;0.90;99.90;;;;;;4967060;28;20475;-49
2023/11/23 04:53:02;;;;;;;26.23;15.32;;;0.80;99.90;;;;;;4968379;28;20047;-49
2023/11/23 04:55:29;;;;;;;27.85;16.23;;;0.80;99.90;;;;;;4965754;28;20611;-53
2023/11/23 04:57:57;;;;;;;28.80;15.73;;;0.80;99.90;;;;;;4965323;28;20055;-55
2023/11/23 05:00:26;;;;;;;28.70;16.25;;;0.70;99.90;;;;;;4966490;28;20058;-51
2023/11/23 05:02:54;;;;;;;32.30;16.23;;;0.60;99.90;;;;;;4966232;28;20038;-54
2023/11/23 05:05:21;;;;;;;29.42;16.65;;;0.60;99.90;;;;;;4967302;28;20420;-50
2023/11/23 05:07:49;;;;;;;29.40;16.67;;;0.60;99.90;;;;;;4967216;28;20043;-49
2023/11/23 05:10:16;;;;;;;29.50;16.77;;;0.70;99.90;;;;;;4967635;28;22113;-50
2023/11/23 05:12:43;;;;;;;27.90;16.75;;;0.60;99.90;;;;;;4966053;28;20059;-56
2023/11/23 05:15:10;;;;;;;26.88;16.10;;;0.60;99.90;;;;;;4965182;28;20150;-50
2023/11/23 05:17:37;;;;;;;28.98;15.90;;;0.60;99.90;;;;;;4949255;28;20050;-57
2023/11/23 05:20:05;;;;;;;29.00;16.35;;;0.50;99.90;;;;;;4964914;28;20082;-54
2023/11/23 05:22:33;;;;;;;27.83;16.15;;;0.50;99.90;;;;;;4966668;28;20129;-50
2023/11/23 05:25:00;;;;;;;28.15;16.38;;;0.40;99.90;;;;;;4967050;28;20130;-56
2023/11/23 05:27:27;;;;;;;27.55;16.52;;;0.40;99.90;;;;;;4967202;28;20051;-51
2023/11/23 05:29:54;;;;;;;27.10;15.98;;;0.40;99.90;;;;;;4967275;28;20051;-55
2023/11/23 05:32:21;;;;;;;28.85;16.23;;;0.40;99.90;;;;;;4965310;28;20038;-51
2023/11/23 05:34:48;;;;;;;27.08;15.95;;;0.40;99.90;;;;;;4966202;28;20054;-55
2023/11/23 05:37:14;;;;;;;27.67;15.40;;;0.40;99.90;;;;;;4966183;28;20050;-50
2023/11/23 05:39:42;;;;;;;28.60;16.20;;;0.40;99.90;;;;;;4969417;28;20133;-55
2023/11/23 05:42:10;;;;;;;28.20;16.60;;;0.40;99.90;;;;;;4967194;28;20190;-52
2023/11/23 05:44:39;;;;;;;28.75;15.90;;;0.40;99.90;;;;;;4964285;28;20826;-50
2023/11/23 05:47:06;;;;;;;29.27;16.88;;;0.40;99.90;;;;;;4962334;28;20049;-53
2023/11/23 05:49:33;;;;;;;29.88;17.27;;;0.50;99.90;;;;;;4966910;28;20552;-48
2023/11/23 05:52:00;;;;;;;27.70;15.60;;;0.40;99.90;;;;;;4970768;28;20061;-49
2023/11/23 05:54:27;;;;;;;28.70;16.08;;;0.60;99.90;;;;;;4969697;28;20073;-54
2023/11/23 05:56:54;;;;;;;28.85;16.35;;;0.60;99.90;;;;;;4970855;28;20049;-51
2023/11/23 05:59:22;;;;;;;26.65;16.10;;;0.60;99.90;;;;;;4971358;28;20069;-51
2023/11/23 06:01:49;;;;;;;28.10;15.15;;;0.60;99.90;;;;;;4970179;28;20413;-54
2023/11/23 06:04:17;;;;;;;27.88;17.63;;;0.60;99.90;;;;;;4969797;28;20065;-50
2023/11/23 06:06:44;;;;;;;28.40;16.30;;;0.60;99.90;;;;;;4970251;28;20730;-51
2023/11/23 06:09:11;;;;;;;28.65;16.13;;;0.50;99.90;;;;;;4968981;28;20506;-47
2023/11/23 06:11:38;;;;;;;29.77;17.15;;;0.50;99.90;;;;;;4970652;28;20408;-55
2023/11/23 06:14:05;;;;;;;30.83;16.35;;;0.50;99.90;;;;;;4969635;28;20057;-54
2023/11/23 06:16:33;;;;;;;28.08;16.80;;;0.50;99.90;;;;;;4969551;28;20158;-47
2023/11/23 06:19:00;;;;;;;29.70;15.48;;;0.50;99.90;;;;;;4969897;28;20226;-51
2023/11/23 06:21:30;;;;;;;30.92;17.52;;;0.40;99.90;;;;;;4970099;28;20043;-51
2023/11/23 06:23:58;;;;;;;30.30;17.90;;;0.40;99.90;;;;;;4972918;28;20055;-54
2023/11/23 06:26:25;;;;;;;31.48;16.85;;;0.50;99.90;;;;;;4969441;28;20133;-56
2023/11/23 06:28:52;;;;;;;30.92;16.30;;;0.50;99.90;;;;;;4969773;28;20047;-50
2023/11/23 06:31:19;;;;;;;30.48;16.08;;;0.50;99.90;;;;;;4970031;28;20051;-52
2023/11/23 06:33:46;;;;;;;31.63;17.23;;;0.50;99.90;;;;;;4969445;28;20046;-51
2023/11/23 06:36:15;;;;;;;30.92;17.42;;;0.50;99.90;;;;;;4969866;28;20043;-51
2023/11/23 06:38:43;;;;;;;31.38;17.38;;;0.50;99.90;;;;;;4969051;28;20058;-47
2023/11/23 06:41:20;;;;;;;31.85;17.90;;;0.50;99.90;;;;;;4970256;28;20050;-52
2023/11/23 06:43:52;;;;;;;29.40;16.95;;;0.50;99.90;;;;;;4968038;28;20047;-49
2023/11/23 06:46:20;;;;;;;30.02;17.65;;;0.50;99.90;;;;;;4964835;28;20055;-58
2023/11/23 06:48:47;;;;;;;29.58;16.55;;;0.50;99.90;;;;;;4969761;28;20508;-51
2023/11/23 06:51:15;;;;;;;27.05;16.23;;;0.50;99.90;;;;;;4969554;28;20051;-47
2023/11/23 06:53:44;;;;;;;31.63;17.23;;;0.50;99.90;;;;;;4969752;28;20046;-51
2023/11/23 06:56:16;;;;;;;29.13;16.95;;;0.50;99.90;;;;;;4969637;28;20059;-47
2023/11/23 06:58:47;;;;;;;29.05;17.35;;;0.50;99.90;;;;;;4967358;28;20055;-51
2023/11/23 07:01:15;;;;;;;27.73;15.80;;;0.50;99.90;;;;;;4949301;28;20118;-53
2023/11/23 07:03:43;;;;;;;28.15;15.68;;;0.50;99.90;;;;;;4963012;28;20050;-51
2023/11/23 07:06:10;;;;;;;28.73;15.73;;;0.50;99.90;;;;;;4969673;28;20058;-45
2023/11/23 07:08:40;;;;;;;26.40;15.48;;;0.60;99.90;;;;;;4968964;28;20046;-49
2023/11/23 07:11:08;;;;;;;27.73;15.27;;;0.60;99.90;;;;;;4969441;28;20397;-51
2023/11/23 07:13:36;;;;;;;28.10;15.98;;;0.60;99.90;;;;;;4968568;28;20062;-50
2023/11/23 07:16:04;;;;;;;27.52;14.75;;;0.60;99.90;;;;;;4968942;28;20568;-48
2023/11/23 07:18:31;;;;;;;27.80;15.45;;;0.60;99.90;;;;;;4969799;28;20124;-50
2023/11/23 07:20:59;;;;;;;27.08;14.93;;;0.60;99.90;;;;;;4968574;28;20131;-52
2023/11/23 07:23:26;;;;;;;26.90;15.27;;;0.60;99.90;;;;;;4969520;28;20045;-49
2023/11/23 07:25:53;;;;;;;27.13;14.73;;;0.70;99.90;;;;;;4968990;28;20038;-57
2023/11/23 07:28:25;;;;;;;25.50;14.88;;;0.70;99.90;;;;;;4968878;28;20475;-54
2023/11/23 07:30:53;;;;;;;26.27;14.50;;;0.80;99.90;;;;;;4969247;28;20081;-50
2023/11/23 07:33:21;;;;;;;27.10;14.35;;;0.80;99.90;;;;;;4972059;28;20133;-50
2023/11/23 07:35:49;;;;;;;23.50;13.57;;;0.90;99.90;;;;;;4969549;28;20047;-54
2023/11/23 07:38:17;;;;;;;26.80;13.68;;;1.00;99.90;;;;;;4950775;28;20157;-54
2023/11/23 07:40:45;;;;;;;25.90;14.50;;;1.10;99.90;;;;;;4968998;28;20042;-53
2023/11/23 07:43:14;;;;;;;24.08;13.82;;;1.30;99.90;;;;;;4968432;28;20101;-51
2023/11/23 07:45:41;;;;;;;23.95;13.98;;;1.40;99.90;;;;;;4968971;28;20046;-46
2023/11/23 07:48:09;;;;;;;23.38;13.75;;;1.50;99.90;;;;;;4966746;28;20116;-49
2023/11/23 07:50:37;;;;;;;24.20;13.30;;;1.70;99.90;;;;;;4968712;28;20046;-54
2023/11/23 07:53:04;;;;;;;22.58;13.82;;;1.80;99.90;;;;;;4967913;28;20051;-56
2023/11/23 07:55:32;;;;;;;21.50;12.93;;;1.80;99.90;;;;;;4949052;28;20452;-52
2023/11/23 07:57:59;;;;;;;24.50;13.00;;;1.80;99.90;;;;;;4965273;28;20058;-51
2023/11/23 08:00:27;;;;;;;20.70;12.38;;;1.90;99.90;;;;;;4968772;28;20102;-50
2023/11/23 08:02:57;;;;;;;23.58;13.10;;;2.00;99.90;;;;;;4968553;28;20062;-49
2023/11/23 08:05:24;;;;;;;20.58;12.57;;;2.10;99.90;;;;;;4968754;28;20130;-52
2023/11/23 08:07:51;;;;;;;22.58;13.15;;;2.20;99.90;;;;;;4969370;28;20045;-49
2023/11/23 08:10:19;;;;;;;20.67;12.10;;;2.30;99.90;;;;;;4968038;28;20531;-52
2023/11/23 08:12:46;;;;;;;21.13;11.90;;;2.30;99.90;;;;;;4965907;28;20061;-58
2023/11/23 08:15:14;;;;;;;22.83;12.07;;;2.30;99.90;;;;;;4950720;28;20047;-50
2023/11/23 08:17:41;;;;;;;21.48;11.57;;;2.20;99.90;;;;;;4968088;28;20364;-53
2023/11/23 08:20:27;;;;;;;22.48;12.23;;;2.20;99.90;;;;;;4968324;28;20062;-48
2023/11/23 08:22:55;;;;;;;18.48;11.55;;;2.30;99.90;;;;;;4964405;28;20137;-55
2023/11/23 08:25:22;;;;;;;17.73;11.05;;;2.50;99.90;;;;;;4966323;28;20039;-49
2023/11/23 08:27:49;;;;;;;21.48;12.18;;;2.50;99.90;;;;;;4955010;28;20054;-58
2023/11/23 08:30:20;;;;;;;17.85;10.98;;;2.70;99.90;;;;;;4966180;28;20057;-58
2023/11/23 08:32:47;;;;;;;21.40;11.63;;;2.60;99.90;;;;;;4962070;28;20188;-55
2023/11/23 08:35:14;;;;;;;19.83;11.90;;;2.60;99.90;;;;;;4935946;28;20053;-53
2023/11/23 08:37:41;;;;;;;19.42;11.93;;;2.60;99.90;;;;;;4968618;28;20058;-48
2023/11/23 08:40:08;;;;;;;18.63;11.38;;;2.50;99.90;;;;;;4961776;28;20051;-50
2023/11/23 08:42:35;;;;;;;19.92;12.25;;;2.50;99.90;;;;;;4965150;28;20496;-54
2023/11/23 08:45:03;;;;;;;19.50;11.25;;;2.50;99.90;;;;;;4965489;28;20329;-55
2023/11/23 08:47:30;;;;;;;18.65;11.38;;;2.50;99.90;;;;;;4948112;28;20114;-48
2023/11/23 08:49:57;;;;;;;20.52;10.45;;;2.60;99.90;;;;;;4965064;28;20066;-54
2023/11/23 08:52:24;;;;;;;19.30;11.88;;;2.60;99.90;;;;;;4966476;28;20042;-59
2023/11/23 08:54:51;;;;;;;20.15;10.70;;;2.50;99.90;;;;;;4968638;28;20050;-55
2023/11/23 08:57:18;;;;;;;19.70;10.85;;;2.50;99.90;;;;;;4965661;28;20563;-56
2023/11/23 08:59:45;;;;;;;19.48;11.23;;;2.60;99.90;;;;;;4965128;28;20210;-55
2023/11/23 09:02:13;;;;;;;17.15;10.48;;;2.60;99.90;;;;;;4966300;28;20133;-49
2023/11/23 09:04:47;;;;;;;16.75;10.77;;;2.70;99.90;;;;;;4962710;28;20030;-55
2023/11/23 09:07:16;;;;;;;17.60;11.07;;;2.90;99.90;;;;;;4967276;28;20133;-56
2023/11/23 09:09:43;;;;;;;20.23;11.40;;;2.80;99.90;;;;;;4964345;28;20054;-49
2023/11/23 09:12:11;;;;;;;19.10;10.95;;;2.90;99.90;;;;;;4965912;28;20047;-53
2023/11/23 09:14:38;;;;;;;19.33;10.90;;;3.00;99.90;;;;;;4961714;28;20113;-53
2023/11/23 09:17:16;;;;;;;18.92;10.85;;;3.10;99.90;;;;;;4961629;28;20524;-54
2023/11/23 09:19:44;;;;;;;19.73;11.25;;;3.20;99.90;;;;;;4965630;28;20098;-55
2023/11/23 09:22:12;;;;;;;21.00;11.50;;;3.30;99.90;;;;;;4965082;28;20055;-53
2023/11/23 09:24:39;;;;;;;18.58;10.52;;;3.40;99.90;;;;;;4951691;28;20431;-54
2023/11/23 09:27:06;;;;;;;19.77;10.30;;;3.60;99.90;;;;;;4969737;28;20051;-52
2023/11/23 09:29:33;;;;;;;18.08;10.57;;;3.70;99.90;;;;;;4973657;28;20520;-55
2023/11/23 09:32:03;;;;;;;18.67;10.95;;;3.90;99.90;;;;;;4952863;28;20043;-51
2023/11/23 09:34:30;;;;;;;17.48;11.07;;;4.00;99.90;;;;;;4971020;28;20061;-50
2023/11/23 09:36:57;;;;;;;17.23;9.68;;;4.30;99.90;;;;;;4970052;28;20050;-52
2023/11/23 09:39:25;;;;;;;14.15;9.80;;;4.50;99.90;;;;;;4970637;28;20094;-55
2023/11/23 09:41:54;;;;;;;20.63;10.30;;;4.60;99.90;;;;;;4971689;28;20043;-53
2023/11/23 09:44:25;;;;;;;15.70;9.10;;;4.40;99.90;;;;;;4968267;28;20045;-49
2023/11/23 09:46:55;;;;;;;14.70;8.48;;;4.30;99.90;;;;;;4970889;28;20065;-52
2023/11/23 09:49:23;;;;;;;15.13;9.13;;;4.40;99.90;;;;;;4969294;28;20047;-49
2023/11/23 09:51:52;;;;;;;17.88;9.27;;;4.40;99.90;;;;;;4969431;28;20059;-49
2023/11/23 09:54:21;;;;;;;14.23;9.48;;;4.50;99.90;;;;;;4968868;28;20047;-50
2023/11/23 09:56:49;;;;;;;14.57;9.75;;;4.40;99.90;;;;;;4969700;28;20058;-52
2023/11/23 09:59:17;;;;;;;13.10;8.82;;;4.50;99.90;;;;;;4969358;28;20459;-52
2023/11/23 10:01:47;;;;;;;12.55;8.55;;;4.50;99.90;;;;;;4969821;28;20101;-49
2023/11/23 10:04:15;;;;;;;13.45;8.23;;;4.70;99.90;;;;;;4963795;28;20074;-52
2023/11/23 10:06:43;;;;;;;13.65;8.73;;;4.90;99.90;;;;;;4965396;28;20061;-51
2023/11/23 10:09:17;;;;;;;13.02;8.27;;;4.90;99.90;;;;;;4968886;28;20073;-53
2023/11/23 10:11:46;;;;;;;12.07;8.20;;;5.00;99.90;;;;;;4969183;28;20570;-48
2023/11/23 10:14:15;;;;;;;16.20;8.90;;;5.00;99.90;;;;;;4969093;28;20211;-48
2023/11/23 10:16:42;;;;;;;14.00;8.75;;;5.00;99.90;;;;;;4969102;28;20416;-50
2023/11/23 10:19:20;;;;;;;14.48;8.77;;;4.90;99.90;;;;;;4967696;28;20122;-50
2023/11/23 10:21:47;;;;;;;14.00;8.32;;;5.00;99.90;;;;;;4968808;28;20520;-51
2023/11/23 10:24:16;;;;;;;14.90;8.20;;;5.10;99.90;;;;;;4967392;28;20079;-52
2023/11/23 10:26:43;;;;;;;12.27;7.88;;;5.20;99.90;;;;;;4962836;28;20047;-53
2023/11/23 10:29:11;;;;;;;15.95;8.48;;;5.10;99.90;;;;;;4970818;28;20089;-55
2023/11/23 10:31:38;;;;;;;11.60;7.80;;;5.30;99.90;;;;;;4969111;28;20051;-47
2023/11/23 10:34:07;;;;;;;11.75;7.70;;;5.20;99.90;;;;;;4969726;28;20595;-47
2023/11/23 10:36:39;;;;;;;11.75;7.80;;;5.10;99.90;;;;;;4967520;28;20107;-54
2023/11/23 10:39:11;;;;;;;11.63;7.65;;;5.00;99.90;;;;;;4967425;28;20043;-51
2023/11/23 10:41:44;;;;;;;13.27;7.60;;;5.00;99.90;;;;;;4967277;28;20342;-51
2023/11/23 10:44:12;;;;;;;12.23;7.10;;;5.10;99.90;;;;;;4968551;28;20582;-49
2023/11/23 10:46:39;;;;;;;12.73;7.35;;;5.10;99.90;;;;;;4970391;28;20046;-48
2023/11/23 10:49:08;;;;;;;12.85;7.97;;;5.20;99.90;;;;;;4969510;28;20042;-50
2023/11/23 10:51:37;;;;;;;11.55;7.03;;;5.10;99.90;;;;;;4972010;28;20485;-53
2023/11/23 10:54:04;;;;;;;15.70;7.80;;;5.10;99.90;;;;;;4967882;28;20043;-53
2023/11/23 10:56:32;;;;;;;17.55;7.78;;;5.10;99.90;;;;;;4967575;28;20039;-47
2023/11/23 10:59:07;;;;;;;11.15;7.22;;;5.10;99.90;;;;;;4951136;28;20161;-57
2023/11/23 11:01:37;;;;;;;11.68;7.18;;;5.10;99.90;;;;;;4967196;28;20338;-52
2023/11/23 11:04:05;;;;;;;11.63;7.35;;;5.20;99.90;;;;;;4969164;28;20082;-48
2023/11/23 11:06:39;;;;;;;12.45;7.60;;;5.10;99.90;;;;;;4968461;28;20034;-54
2023/11/23 11:09:14;;;;;;;13.27;7.32;;;5.00;99.90;;;;;;4974174;28;20055;-52
2023/11/23 11:11:56;;;;;;;13.77;8.88;;;5.10;99.90;;;;;;4969735;28;20051;-48
2023/11/23 11:14:36;;;;;;;11.20;7.20;;;5.10;99.90;;;;;;4968108;28;20050;-48
2023/11/23 11:17:05;;;;;;;12.38;7.50;;;5.10;99.90;;;;;;4950756;28;20051;-54
2023/11/23 11:19:46;;;;;;;11.70;7.07;;;5.10;99.90;;;;;;4968131;28;20446;-53
2023/11/23 11:22:14;;;;;;;19.50;7.45;;;5.10;99.90;;;;;;4965256;28;20039;-45
2023/11/23 11:24:42;;;;;;;12.80;7.45;;;5.10;99.90;;;;;;4966100;28;20547;-49
2023/11/23 11:27:10;;;;;;;12.35;7.68;;;5.20;99.90;;;;;;4967306;28;20043;-48
2023/11/23 11:29:37;;;;;;;14.68;7.18;;;5.20;99.90;;;;;;4967208;28;20058;-52
2023/11/23 11:32:07;;;;;;;12.30;7.38;;;5.20;99.90;;;;;;4967415;28;20122;-51
2023/11/23 11:34:36;;;;;;;13.18;7.32;;;5.20;99.90;;;;;;4968060;28;20484;-54
2023/11/23 11:37:04;;;;;;;14.07;7.53;;;5.20;99.90;;;;;;4966911;28;20066;-52
2023/11/23 11:39:33;;;;;;;13.13;7.35;;;5.30;99.90;;;;;;4968078;28;20577;-54
2023/11/23 11:42:10;;;;;;;11.13;6.85;;;5.30;99.90;;;;;;4964828;28;20676;-51
2023/11/23 11:44:43;;;;;;;14.88;7.45;;;5.30;99.90;;;;;;4967395;28;20530;-53
2023/11/23 11:47:12;;;;;;;12.52;6.78;;;5.40;99.90;;;;;;4967890;28;20549;-51
2023/11/23 11:49:39;;;;;;;13.45;7.63;;;5.40;99.90;;;;;;4967623;28;20078;-54
2023/11/23 11:52:08;;;;;;;13.30;7.30;;;5.40;99.90;;;;;;4967309;28;20062;-49
2023/11/23 11:54:38;;;;;;;13.98;7.63;;;5.40;99.90;;;;;;4968100;28;20070;-54
2023/11/23 11:57:05;;;;;;;11.48;7.10;;;5.40;99.90;;;;;;4967376;28;20051;-51
2023/11/23 11:59:35;;;;;;;15.50;7.22;;;5.40;99.90;;;;;;4966945;28;20145;-48
2023/11/23 12:02:05;;;;;;;12.13;7.07;;;5.40;99.90;;;;;;4966564;28;20058;-55
2023/11/23 12:04:38;;;;;;;12.95;6.97;;;5.40;99.90;;;;;;4967230;28;20047;-52
2023/11/23 12:07:11;;;;;;;;;;;5.50;99.90;;;;;;4965374;28;20046;-53
2023/11/23 12:09:38;;;;;;;14.40;7.30;;;5.40;99.90;;;;;;4966610;28;19926;-57
2023/11/23 12:12:13;;;;;;;11.27;6.72;;;5.40;99.90;;;;;;4972777;28;20092;-51
2023/11/23 12:14:40;;;;;;;14.20;7.65;;;5.30;99.90;;;;;;4967028;28;20054;-55
2023/11/23 12:17:11;;;;;;;12.77;7.35;;;5.20;99.90;;;;;;4967507;28;20073;-45
2023/11/23 12:19:53;;;;;;;13.43;7.28;;;5.30;99.90;;;;;;4967991;28;20465;-50
2023/11/23 12:22:22;;;;;;;11.63;7.18;;;5.40;99.90;;;;;;4966695;28;20053;-50
2023/11/23 12:24:51;;;;;;;14.30;7.30;;;5.40;99.90;;;;;;4969654;28;20137;-52
2023/11/23 12:27:20;;;;;;;12.57;7.50;;;5.50;99.90;;;;;;4965638;28;20043;-51
2023/11/23 12:29:48;;;;;;;15.13;7.75;;;5.50;99.90;;;;;;4966930;28;20074;-55
2023/11/23 12:32:16;;;;;;;11.50;7.22;;;5.60;99.90;;;;;;4966669;28;20062;-53
2023/11/23 12:34:44;;;;;;;12.63;7.65;;;5.70;99.90;;;;;;4966506;28;20153;-53
2023/11/23 12:37:10;;;;;;;12.80;7.28;;;5.50;99.90;;;;;;4967050;28;20109;-53
2023/11/23 12:39:37;;;;;;;13.38;6.60;;;5.50;99.90;;;;;;4949936;28;20042;-53
2023/11/23 12:42:05;;;;;;;13.85;6.53;;;5.50;99.90;;;;;;4966600;28;20042;-56
2023/11/23 12:44:35;;;;;;;15.77;7.65;;;5.40;99.90;;;;;;4964469;28;20045;-54